sensor_id;sensor_type;location;lat;lon;timestamp;P1;durP1;ratioP1;P2;durP2;ratioP2
46897;SDS011;32646;50.958;6.258;2023-07-31T00:01:34;7.97;;;2.65;;
46897;SDS011;32646;50.958;6.258;2023-07-31T00:04:01;8.35;;;2.45;;
46897;SDS011;32646;50.958;6.258;2023-07-31T00:06:28;6.43;;;2.00;;
46897;SDS011;32646;50.958;6.258;2023-07-31T00:08:54;9.00;;;2.55;;
46897;SDS011;32646;50.958;6.258;2023-07-31T00:11:21;9.63;;;2.78;;
46897;SDS011;32646;50.958;6.258;2023-07-31T00:13:48;8.05;;;2.10;;
46897;SDS011;32646;50.958;6.258;2023-07-31T00:16:14;5.78;;;1.92;;
46897;SDS011;32646;50.958;6.258;2023-07-31T00:18:41;7.13;;;2.20;;
46897;SDS011;32646;50.958;6.258;2023-07-31T00:21:08;7.47;;;2.13;;
46897;SDS011;32646;50.958;6.258;2023-07-31T00:23:34;6.43;;;2.08;;
46897;SDS011;32646;50.958;6.258;2023-07-31T00:26:01;6.97;;;2.15;;
46897;SDS011;32646;50.958;6.258;2023-07-31T00:28:27;4.03;;;1.90;;
46897;SDS011;32646;50.958;6.258;2023-07-31T00:30:54;9.70;;;2.42;;
46897;SDS011;32646;50.958;6.258;2023-07-31T00:33:20;9.02;;;1.65;;
46897;SDS011;32646;50.958;6.258;2023-07-31T00:35:48;5.47;;;2.10;;
46897;SDS011;32646;50.958;6.258;2023-07-31T00:38:14;8.52;;;2.60;;
46897;SDS011;32646;50.958;6.258;2023-07-31T00:40:41;6.13;;;2.33;;
46897;SDS011;32646;50.958;6.258;2023-07-31T00:43:07;5.28;;;1.70;;
46897;SDS011;32646;50.958;6.258;2023-07-31T00:45:34;6.85;;;1.50;;
46897;SDS011;32646;50.958;6.258;2023-07-31T00:48:01;6.13;;;1.83;;
46897;SDS011;32646;50.958;6.258;2023-07-31T00:50:28;5.35;;;1.83;;
46897;SDS011;32646;50.958;6.258;2023-07-31T00:52:55;9.32;;;1.98;;
46897;SDS011;32646;50.958;6.258;2023-07-31T00:55:22;4.70;;;1.92;;
46897;SDS011;32646;50.958;6.258;2023-07-31T00:57:49;5.05;;;1.85;;
46897;SDS011;32646;50.958;6.258;2023-07-31T01:00:16;7.35;;;1.92;;
46897;SDS011;32646;50.958;6.258;2023-07-31T01:02:43;8.73;;;2.03;;
46897;SDS011;32646;50.958;6.258;2023-07-31T01:05:10;8.93;;;1.83;;
46897;SDS011;32646;50.958;6.258;2023-07-31T01:12:48;7.47;;;1.95;;
46897;SDS011;32646;50.958;6.258;2023-07-31T01:15:17;9.30;;;2.58;;
46897;SDS011;32646;50.958;6.258;2023-07-31T01:17:43;7.30;;;2.00;;
46897;SDS011;32646;50.958;6.258;2023-07-31T01:20:12;7.55;;;2.50;;
46897;SDS011;32646;50.958;6.258;2023-07-31T01:22:53;5.20;;;1.70;;
46897;SDS011;32646;50.958;6.258;2023-07-31T01:25:48;5.40;;;1.83;;
46897;SDS011;32646;50.958;6.258;2023-07-31T01:28:33;4.97;;;1.70;;
46897;SDS011;32646;50.958;6.258;2023-07-31T01:31:10;6.75;;;1.75;;
46897;SDS011;32646;50.958;6.258;2023-07-31T01:33:40;5.50;;;1.90;;
46897;SDS011;32646;50.958;6.258;2023-07-31T01:36:07;10.00;;;1.90;;
46897;SDS011;32646;50.958;6.258;2023-07-31T01:38:34;11.60;;;2.40;;
46897;SDS011;32646;50.958;6.258;2023-07-31T01:41:01;7.35;;;2.10;;
46897;SDS011;32646;50.958;6.258;2023-07-31T01:43:27;6.10;;;1.73;;
46897;SDS011;32646;50.958;6.258;2023-07-31T01:45:54;9.05;;;1.80;;
46897;SDS011;32646;50.958;6.258;2023-07-31T01:48:20;8.20;;;2.00;;
46897;SDS011;32646;50.958;6.258;2023-07-31T01:50:47;14.57;;;2.20;;
46897;SDS011;32646;50.958;6.258;2023-07-31T01:53:14;4.63;;;1.90;;
46897;SDS011;32646;50.958;6.258;2023-07-31T01:55:41;6.53;;;2.28;;
46897;SDS011;32646;50.958;6.258;2023-07-31T01:58:07;6.63;;;1.92;;
46897;SDS011;32646;50.958;6.258;2023-07-31T02:00:34;6.10;;;2.40;;
46897;SDS011;32646;50.958;6.258;2023-07-31T02:03:00;7.10;;;2.20;;
46897;SDS011;32646;50.958;6.258;2023-07-31T02:05:27;10.55;;;2.58;;
46897;SDS011;32646;50.958;6.258;2023-07-31T02:07:54;5.75;;;2.08;;
46897;SDS011;32646;50.958;6.258;2023-07-31T02:10:20;7.60;;;2.03;;
46897;SDS011;32646;50.958;6.258;2023-07-31T02:12:47;6.72;;;2.00;;
46897;SDS011;32646;50.958;6.258;2023-07-31T02:15:13;8.25;;;2.20;;
46897;SDS011;32646;50.958;6.258;2023-07-31T02:17:40;7.47;;;1.98;;
46897;SDS011;32646;50.958;6.258;2023-07-31T02:20:07;8.32;;;1.85;;
46897;SDS011;32646;50.958;6.258;2023-07-31T02:22:34;6.78;;;2.20;;
46897;SDS011;32646;50.958;6.258;2023-07-31T02:25:00;6.32;;;2.28;;
46897;SDS011;32646;50.958;6.258;2023-07-31T02:27:27;5.30;;;1.85;;
46897;SDS011;32646;50.958;6.258;2023-07-31T02:29:54;8.10;;;1.85;;
46897;SDS011;32646;50.958;6.258;2023-07-31T02:32:20;6.70;;;2.08;;
46897;SDS011;32646;50.958;6.258;2023-07-31T02:34:47;6.97;;;2.10;;
46897;SDS011;32646;50.958;6.258;2023-07-31T02:37:13;5.85;;;2.10;;
46897;SDS011;32646;50.958;6.258;2023-07-31T02:39:40;6.25;;;2.13;;
46897;SDS011;32646;50.958;6.258;2023-07-31T02:42:07;4.80;;;1.80;;
46897;SDS011;32646;50.958;6.258;2023-07-31T02:44:33;6.03;;;2.35;;
46897;SDS011;32646;50.958;6.258;2023-07-31T02:47:00;6.32;;;2.25;;
46897;SDS011;32646;50.958;6.258;2023-07-31T02:49:26;5.18;;;2.15;;
46897;SDS011;32646;50.958;6.258;2023-07-31T02:51:53;7.43;;;2.60;;
46897;SDS011;32646;50.958;6.258;2023-07-31T02:54:19;9.70;;;2.38;;
46897;SDS011;32646;50.958;6.258;2023-07-31T02:56:46;8.45;;;2.40;;
46897;SDS011;32646;50.958;6.258;2023-07-31T02:59:13;8.77;;;2.28;;
46897;SDS011;32646;50.958;6.258;2023-07-31T03:01:39;5.25;;;2.10;;
46897;SDS011;32646;50.958;6.258;2023-07-31T03:04:06;5.38;;;2.20;;
46897;SDS011;32646;50.958;6.258;2023-07-31T03:06:33;7.45;;;2.30;;
46897;SDS011;32646;50.958;6.258;2023-07-31T03:09:00;11.60;;;3.10;;
46897;SDS011;32646;50.958;6.258;2023-07-31T03:11:26;7.07;;;2.80;;
46897;SDS011;32646;50.958;6.258;2023-07-31T03:13:53;4.65;;;2.00;;
46897;SDS011;32646;50.958;6.258;2023-07-31T03:16:19;6.47;;;2.25;;
46897;SDS011;32646;50.958;6.258;2023-07-31T03:18:46;6.88;;;2.45;;
46897;SDS011;32646;50.958;6.258;2023-07-31T03:21:13;7.78;;;2.70;;
46897;SDS011;32646;50.958;6.258;2023-07-31T03:23:40;7.63;;;2.80;;
46897;SDS011;32646;50.958;6.258;2023-07-31T03:26:07;12.63;;;3.50;;
46897;SDS011;32646;50.958;6.258;2023-07-31T03:28:34;6.20;;;2.05;;
46897;SDS011;32646;50.958;6.258;2023-07-31T03:31:01;5.50;;;2.25;;
46897;SDS011;32646;50.958;6.258;2023-07-31T03:33:27;7.40;;;2.60;;
46897;SDS011;32646;50.958;6.258;2023-07-31T03:35:54;10.55;;;2.72;;
46897;SDS011;32646;50.958;6.258;2023-07-31T03:38:20;10.52;;;2.47;;
46897;SDS011;32646;50.958;6.258;2023-07-31T03:40:47;10.32;;;2.40;;
46897;SDS011;32646;50.958;6.258;2023-07-31T03:43:14;10.73;;;2.58;;
46897;SDS011;32646;50.958;6.258;2023-07-31T03:45:41;7.90;;;2.40;;
46897;SDS011;32646;50.958;6.258;2023-07-31T03:48:08;7.32;;;2.42;;
46897;SDS011;32646;50.958;6.258;2023-07-31T03:50:35;10.38;;;2.95;;
46897;SDS011;32646;50.958;6.258;2023-07-31T03:53:01;7.60;;;2.65;;
46897;SDS011;32646;50.958;6.258;2023-07-31T03:55:28;6.68;;;2.45;;
46897;SDS011;32646;50.958;6.258;2023-07-31T03:57:54;6.07;;;2.10;;
46897;SDS011;32646;50.958;6.258;2023-07-31T04:00:21;8.95;;;2.40;;
46897;SDS011;32646;50.958;6.258;2023-07-31T04:02:48;8.55;;;2.50;;
46897;SDS011;32646;50.958;6.258;2023-07-31T04:05:14;8.02;;;2.42;;
46897;SDS011;32646;50.958;6.258;2023-07-31T04:07:41;9.27;;;2.75;;
46897;SDS011;32646;50.958;6.258;2023-07-31T04:10:08;6.97;;;2.30;;
46897;SDS011;32646;50.958;6.258;2023-07-31T04:12:38;8.65;;;2.85;;
46897;SDS011;32646;50.958;6.258;2023-07-31T04:15:05;9.70;;;2.85;;
46897;SDS011;32646;50.958;6.258;2023-07-31T04:17:32;6.57;;;2.25;;
46897;SDS011;32646;50.958;6.258;2023-07-31T04:19:59;6.13;;;2.42;;
46897;SDS011;32646;50.958;6.258;2023-07-31T04:22:25;7.40;;;2.45;;
46897;SDS011;32646;50.958;6.258;2023-07-31T04:24:53;6.15;;;1.88;;
46897;SDS011;32646;50.958;6.258;2023-07-31T04:27:20;6.13;;;2.28;;
46897;SDS011;32646;50.958;6.258;2023-07-31T04:29:46;7.97;;;2.55;;
46897;SDS011;32646;50.958;6.258;2023-07-31T04:32:13;6.82;;;2.60;;
46897;SDS011;32646;50.958;6.258;2023-07-31T04:34:40;5.55;;;2.03;;
46897;SDS011;32646;50.958;6.258;2023-07-31T04:37:06;7.53;;;2.17;;
46897;SDS011;32646;50.958;6.258;2023-07-31T04:39:33;6.65;;;2.13;;
46897;SDS011;32646;50.958;6.258;2023-07-31T04:41:59;5.80;;;2.20;;
46897;SDS011;32646;50.958;6.258;2023-07-31T04:44:26;5.25;;;2.30;;
46897;SDS011;32646;50.958;6.258;2023-07-31T04:46:52;6.97;;;2.00;;
46897;SDS011;32646;50.958;6.258;2023-07-31T04:49:19;4.95;;;2.15;;
46897;SDS011;32646;50.958;6.258;2023-07-31T04:51:46;6.35;;;2.13;;
46897;SDS011;32646;50.958;6.258;2023-07-31T04:54:12;5.55;;;2.30;;
46897;SDS011;32646;50.958;6.258;2023-07-31T04:56:39;6.70;;;2.13;;
46897;SDS011;32646;50.958;6.258;2023-07-31T04:59:06;7.72;;;2.42;;
46897;SDS011;32646;50.958;6.258;2023-07-31T05:01:33;6.28;;;1.70;;
46897;SDS011;32646;50.958;6.258;2023-07-31T05:03:59;5.93;;;2.28;;
46897;SDS011;32646;50.958;6.258;2023-07-31T05:06:26;5.47;;;2.22;;
46897;SDS011;32646;50.958;6.258;2023-07-31T05:08:53;6.47;;;1.75;;
46897;SDS011;32646;50.958;6.258;2023-07-31T05:11:19;5.18;;;1.90;;
46897;SDS011;32646;50.958;6.258;2023-07-31T05:13:46;5.72;;;2.00;;
46897;SDS011;32646;50.958;6.258;2023-07-31T05:16:13;5.65;;;1.60;;
46897;SDS011;32646;50.958;6.258;2023-07-31T05:18:39;6.13;;;1.90;;
46897;SDS011;32646;50.958;6.258;2023-07-31T05:21:06;5.15;;;2.13;;
46897;SDS011;32646;50.958;6.258;2023-07-31T05:23:32;3.88;;;1.60;;
46897;SDS011;32646;50.958;6.258;2023-07-31T05:26:05;4.38;;;1.50;;
46897;SDS011;32646;50.958;6.258;2023-07-31T05:28:34;4.95;;;1.85;;
46897;SDS011;32646;50.958;6.258;2023-07-31T05:31:01;4.90;;;1.75;;
46897;SDS011;32646;50.958;6.258;2023-07-31T05:33:29;4.57;;;1.67;;
46897;SDS011;32646;50.958;6.258;2023-07-31T05:35:55;6.63;;;2.05;;
46897;SDS011;32646;50.958;6.258;2023-07-31T05:38:22;5.93;;;1.73;;
46897;SDS011;32646;50.958;6.258;2023-07-31T05:40:49;4.85;;;1.85;;
46897;SDS011;32646;50.958;6.258;2023-07-31T05:43:15;6.32;;;2.30;;
46897;SDS011;32646;50.958;6.258;2023-07-31T05:45:42;6.65;;;2.42;;
46897;SDS011;32646;50.958;6.258;2023-07-31T05:48:09;5.28;;;1.75;;
46897;SDS011;32646;50.958;6.258;2023-07-31T05:50:36;7.38;;;2.00;;
46897;SDS011;32646;50.958;6.258;2023-07-31T05:53:02;6.97;;;2.00;;
46897;SDS011;32646;50.958;6.258;2023-07-31T05:55:29;5.45;;;2.00;;
46897;SDS011;32646;50.958;6.258;2023-07-31T05:57:55;4.90;;;1.65;;
46897;SDS011;32646;50.958;6.258;2023-07-31T06:00:26;9.35;;;2.20;;
46897;SDS011;32646;50.958;6.258;2023-07-31T06:02:52;8.43;;;2.25;;
46897;SDS011;32646;50.958;6.258;2023-07-31T06:05:19;4.35;;;1.77;;
46897;SDS011;32646;50.958;6.258;2023-07-31T06:07:46;7.35;;;2.03;;
46897;SDS011;32646;50.958;6.258;2023-07-31T06:10:12;6.03;;;2.33;;
46897;SDS011;32646;50.958;6.258;2023-07-31T06:12:39;8.43;;;2.67;;
46897;SDS011;32646;50.958;6.258;2023-07-31T06:15:05;6.28;;;2.03;;
46897;SDS011;32646;50.958;6.258;2023-07-31T06:17:32;8.32;;;2.17;;
46897;SDS011;32646;50.958;6.258;2023-07-31T06:19:59;10.30;;;1.98;;
46897;SDS011;32646;50.958;6.258;2023-07-31T06:22:26;7.13;;;2.15;;
46897;SDS011;32646;50.958;6.258;2023-07-31T06:24:52;7.53;;;2.38;;
46897;SDS011;32646;50.958;6.258;2023-07-31T06:27:19;5.63;;;1.35;;
46897;SDS011;32646;50.958;6.258;2023-07-31T06:29:45;7.13;;;2.08;;
46897;SDS011;32646;50.958;6.258;2023-07-31T06:32:12;6.10;;;2.13;;
46897;SDS011;32646;50.958;6.258;2023-07-31T06:34:39;6.43;;;2.35;;
46897;SDS011;32646;50.958;6.258;2023-07-31T06:37:05;5.95;;;1.60;;
46897;SDS011;32646;50.958;6.258;2023-07-31T06:39:32;5.68;;;1.88;;
46897;SDS011;32646;50.958;6.258;2023-07-31T06:41:59;7.25;;;2.20;;
46897;SDS011;32646;50.958;6.258;2023-07-31T06:44:25;7.25;;;2.00;;
46897;SDS011;32646;50.958;6.258;2023-07-31T06:46:52;6.10;;;1.73;;
46897;SDS011;32646;50.958;6.258;2023-07-31T06:49:18;6.82;;;2.30;;
46897;SDS011;32646;50.958;6.258;2023-07-31T06:51:45;5.47;;;1.60;;
46897;SDS011;32646;50.958;6.258;2023-07-31T06:54:12;5.68;;;1.80;;
46897;SDS011;32646;50.958;6.258;2023-07-31T06:56:38;6.53;;;1.92;;
46897;SDS011;32646;50.958;6.258;2023-07-31T06:59:06;5.30;;;1.58;;
46897;SDS011;32646;50.958;6.258;2023-07-31T07:01:33;5.97;;;1.60;;
46897;SDS011;32646;50.958;6.258;2023-07-31T07:04:00;6.50;;;2.15;;
46897;SDS011;32646;50.958;6.258;2023-07-31T07:06:26;5.38;;;1.73;;
46897;SDS011;32646;50.958;6.258;2023-07-31T07:08:53;5.05;;;1.88;;
46897;SDS011;32646;50.958;6.258;2023-07-31T07:11:19;5.40;;;2.20;;
46897;SDS011;32646;50.958;6.258;2023-07-31T07:13:46;4.63;;;1.50;;
46897;SDS011;32646;50.958;6.258;2023-07-31T07:16:13;7.47;;;2.13;;
46897;SDS011;32646;50.958;6.258;2023-07-31T07:18:39;6.18;;;2.20;;
46897;SDS011;32646;50.958;6.258;2023-07-31T07:21:19;5.93;;;1.50;;
46897;SDS011;32646;50.958;6.258;2023-07-31T07:23:46;6.38;;;2.17;;
46897;SDS011;32646;50.958;6.258;2023-07-31T07:26:12;3.60;;;1.45;;
46897;SDS011;32646;50.958;6.258;2023-07-31T07:28:39;4.32;;;1.90;;
46897;SDS011;32646;50.958;6.258;2023-07-31T07:31:06;7.53;;;2.80;;
46897;SDS011;32646;50.958;6.258;2023-07-31T07:33:32;8.25;;;2.17;;
46897;SDS011;32646;50.958;6.258;2023-07-31T07:36:00;8.32;;;1.83;;
46897;SDS011;32646;50.958;6.258;2023-07-31T07:38:27;6.03;;;1.80;;
46897;SDS011;32646;50.958;6.258;2023-07-31T07:40:54;5.50;;;2.10;;
46897;SDS011;32646;50.958;6.258;2023-07-31T07:43:20;4.13;;;1.45;;
46897;SDS011;32646;50.958;6.258;2023-07-31T07:45:47;6.65;;;1.75;;
46897;SDS011;32646;50.958;6.258;2023-07-31T07:48:13;6.18;;;2.10;;
46897;SDS011;32646;50.958;6.258;2023-07-31T07:50:40;7.03;;;1.95;;
46897;SDS011;32646;50.958;6.258;2023-07-31T07:53:06;6.45;;;1.60;;
46897;SDS011;32646;50.958;6.258;2023-07-31T07:55:33;5.25;;;2.17;;
46897;SDS011;32646;50.958;6.258;2023-07-31T07:58:01;6.50;;;2.20;;
46897;SDS011;32646;50.958;6.258;2023-07-31T08:00:27;5.72;;;1.95;;
46897;SDS011;32646;50.958;6.258;2023-07-31T08:02:54;5.40;;;2.05;;
46897;SDS011;32646;50.958;6.258;2023-07-31T08:05:21;4.05;;;1.67;;
46897;SDS011;32646;50.958;6.258;2023-07-31T08:07:47;5.30;;;1.60;;
46897;SDS011;32646;50.958;6.258;2023-07-31T08:10:14;7.32;;;2.35;;
46897;SDS011;32646;50.958;6.258;2023-07-31T08:12:41;5.07;;;1.75;;
46897;SDS011;32646;50.958;6.258;2023-07-31T08:15:07;5.00;;;2.10;;
46897;SDS011;32646;50.958;6.258;2023-07-31T08:17:34;4.63;;;2.10;;
46897;SDS011;32646;50.958;6.258;2023-07-31T08:20:01;7.38;;;1.80;;
46897;SDS011;32646;50.958;6.258;2023-07-31T08:22:27;5.13;;;1.88;;
46897;SDS011;32646;50.958;6.258;2023-07-31T08:24:54;6.07;;;2.05;;
46897;SDS011;32646;50.958;6.258;2023-07-31T08:27:21;4.40;;;1.90;;
46897;SDS011;32646;50.958;6.258;2023-07-31T08:29:47;5.90;;;1.73;;
46897;SDS011;32646;50.958;6.258;2023-07-31T08:32:14;5.75;;;1.80;;
46897;SDS011;32646;50.958;6.258;2023-07-31T08:34:40;4.68;;;1.70;;
46897;SDS011;32646;50.958;6.258;2023-07-31T08:37:07;5.18;;;1.95;;
46897;SDS011;32646;50.958;6.258;2023-07-31T08:39:34;5.03;;;1.70;;
46897;SDS011;32646;50.958;6.258;2023-07-31T08:42:00;6.18;;;2.20;;
46897;SDS011;32646;50.958;6.258;2023-07-31T08:44:27;6.53;;;1.85;;
46897;SDS011;32646;50.958;6.258;2023-07-31T08:46:55;5.15;;;1.65;;
46897;SDS011;32646;50.958;6.258;2023-07-31T08:49:22;4.30;;;2.05;;
46897;SDS011;32646;50.958;6.258;2023-07-31T08:51:50;5.32;;;1.90;;
46897;SDS011;32646;50.958;6.258;2023-07-31T08:54:18;5.63;;;1.88;;
46897;SDS011;32646;50.958;6.258;2023-07-31T08:56:46;4.75;;;1.50;;
46897;SDS011;32646;50.958;6.258;2023-07-31T08:59:13;5.93;;;1.63;;
46897;SDS011;32646;50.958;6.258;2023-07-31T09:01:43;5.82;;;2.15;;
46897;SDS011;32646;50.958;6.258;2023-07-31T09:04:12;4.55;;;1.95;;
46897;SDS011;32646;50.958;6.258;2023-07-31T09:06:41;6.65;;;1.92;;
46897;SDS011;32646;50.958;6.258;2023-07-31T09:09:09;6.05;;;2.13;;
46897;SDS011;32646;50.958;6.258;2023-07-31T09:11:36;9.65;;;2.20;;
46897;SDS011;32646;50.958;6.258;2023-07-31T09:14:03;6.32;;;2.17;;
46897;SDS011;32646;50.958;6.258;2023-07-31T09:16:30;5.50;;;2.08;;
46897;SDS011;32646;50.958;6.258;2023-07-31T09:18:59;6.05;;;1.80;;
46897;SDS011;32646;50.958;6.258;2023-07-31T09:21:26;6.30;;;2.35;;
46897;SDS011;32646;50.958;6.258;2023-07-31T09:23:52;5.63;;;2.50;;
46897;SDS011;32646;50.958;6.258;2023-07-31T09:26:29;7.65;;;2.85;;
46897;SDS011;32646;50.958;6.258;2023-07-31T09:28:56;5.20;;;1.77;;
46897;SDS011;32646;50.958;6.258;2023-07-31T09:31:33;6.10;;;2.13;;
46897;SDS011;32646;50.958;6.258;2023-07-31T09:34:07;5.47;;;1.90;;
46897;SDS011;32646;50.958;6.258;2023-07-31T09:36:39;4.20;;;1.80;;
46897;SDS011;32646;50.958;6.258;2023-07-31T09:39:10;5.60;;;2.40;;
46897;SDS011;32646;50.958;6.258;2023-07-31T09:41:42;4.32;;;1.60;;
46897;SDS011;32646;50.958;6.258;2023-07-31T09:44:10;5.18;;;1.77;;
46897;SDS011;32646;50.958;6.258;2023-07-31T09:46:37;4.63;;;1.70;;
46897;SDS011;32646;50.958;6.258;2023-07-31T09:51:36;6.22;;;1.92;;
46897;SDS011;32646;50.958;6.258;2023-07-31T09:56:36;6.95;;;2.20;;
46897;SDS011;32646;50.958;6.258;2023-07-31T09:59:07;7.18;;;1.92;;
46897;SDS011;32646;50.958;6.258;2023-07-31T10:01:36;5.70;;;2.03;;
46897;SDS011;32646;50.958;6.258;2023-07-31T10:04:03;7.68;;;2.17;;
46897;SDS011;32646;50.958;6.258;2023-07-31T10:06:31;5.68;;;1.80;;
46897;SDS011;32646;50.958;6.258;2023-07-31T10:09:00;6.68;;;2.03;;
46897;SDS011;32646;50.958;6.258;2023-07-31T10:11:28;4.60;;;1.95;;
46897;SDS011;32646;50.958;6.258;2023-07-31T10:13:59;6.55;;;2.35;;
46897;SDS011;32646;50.958;6.258;2023-07-31T10:16:27;4.43;;;1.55;;
46897;SDS011;32646;50.958;6.258;2023-07-31T10:18:55;4.20;;;1.52;;
46897;SDS011;32646;50.958;6.258;2023-07-31T10:21:23;4.78;;;1.52;;
46897;SDS011;32646;50.958;6.258;2023-07-31T10:23:49;3.45;;;1.33;;
46897;SDS011;32646;50.958;6.258;2023-07-31T10:26:17;3.92;;;1.42;;
46897;SDS011;32646;50.958;6.258;2023-07-31T10:28:45;4.82;;;1.23;;
46897;SDS011;32646;50.958;6.258;2023-07-31T10:31:13;3.20;;;1.20;;
46897;SDS011;32646;50.958;6.258;2023-07-31T10:33:41;4.35;;;1.38;;
46897;SDS011;32646;50.958;6.258;2023-07-31T10:38:44;5.88;;;1.75;;
46897;SDS011;32646;50.958;6.258;2023-07-31T10:41:11;4.80;;;1.33;;
46897;SDS011;32646;50.958;6.258;2023-07-31T10:43:37;4.45;;;1.58;;
46897;SDS011;32646;50.958;6.258;2023-07-31T10:46:07;4.20;;;1.05;;
46897;SDS011;32646;50.958;6.258;2023-07-31T10:48:35;3.40;;;1.20;;
46897;SDS011;32646;50.958;6.258;2023-07-31T10:51:07;2.33;;;0.80;;
46897;SDS011;32646;50.958;6.258;2023-07-31T10:53:35;2.95;;;1.00;;
46897;SDS011;32646;50.958;6.258;2023-07-31T10:56:03;2.72;;;0.80;;
46897;SDS011;32646;50.958;6.258;2023-07-31T10:58:31;3.63;;;1.33;;
46897;SDS011;32646;50.958;6.258;2023-07-31T11:01:07;2.97;;;0.80;;
46897;SDS011;32646;50.958;6.258;2023-07-31T11:03:47;4.35;;;1.20;;
46897;SDS011;32646;50.958;6.258;2023-07-31T11:06:15;3.53;;;1.08;;
46897;SDS011;32646;50.958;6.258;2023-07-31T11:08:49;3.47;;;0.85;;
46897;SDS011;32646;50.958;6.258;2023-07-31T11:11:18;3.28;;;0.90;;
46897;SDS011;32646;50.958;6.258;2023-07-31T11:13:46;2.30;;;0.90;;
46897;SDS011;32646;50.958;6.258;2023-07-31T11:16:14;1.92;;;0.70;;
46897;SDS011;32646;50.958;6.258;2023-07-31T11:18:41;2.63;;;0.90;;
46897;SDS011;32646;50.958;6.258;2023-07-31T11:21:14;4.40;;;0.90;;
46897;SDS011;32646;50.958;6.258;2023-07-31T11:23:49;2.33;;;0.80;;
46897;SDS011;32646;50.958;6.258;2023-07-31T11:26:18;2.85;;;1.00;;
46897;SDS011;32646;50.958;6.258;2023-07-31T11:28:48;3.13;;;1.00;;
46897;SDS011;32646;50.958;6.258;2023-07-31T11:31:15;2.67;;;0.82;;
46897;SDS011;32646;50.958;6.258;2023-07-31T11:33:43;3.53;;;0.93;;
46897;SDS011;32646;50.958;6.258;2023-07-31T11:36:17;3.03;;;0.85;;
46897;SDS011;32646;50.958;6.258;2023-07-31T11:38:45;2.88;;;1.10;;
46897;SDS011;32646;50.958;6.258;2023-07-31T11:41:13;3.03;;;1.00;;
46897;SDS011;32646;50.958;6.258;2023-07-31T11:43:41;3.30;;;1.20;;
46897;SDS011;32646;50.958;6.258;2023-07-31T11:46:12;3.70;;;1.30;;
46897;SDS011;32646;50.958;6.258;2023-07-31T11:48:39;3.45;;;1.40;;
46897;SDS011;32646;50.958;6.258;2023-07-31T11:51:08;4.00;;;1.27;;
46897;SDS011;32646;50.958;6.258;2023-07-31T11:53:38;4.80;;;1.63;;
46897;SDS011;32646;50.958;6.258;2023-07-31T11:56:13;3.90;;;1.40;;
46897;SDS011;32646;50.958;6.258;2023-07-31T11:58:42;3.50;;;1.45;;
46897;SDS011;32646;50.958;6.258;2023-07-31T12:03:42;3.70;;;1.75;;
46897;SDS011;32646;50.958;6.258;2023-07-31T12:06:08;4.43;;;1.60;;
46897;SDS011;32646;50.958;6.258;2023-07-31T12:08:36;3.83;;;1.50;;
46897;SDS011;32646;50.958;6.258;2023-07-31T12:11:03;3.25;;;1.13;;
46897;SDS011;32646;50.958;6.258;2023-07-31T12:13:32;5.38;;;1.67;;
46897;SDS011;32646;50.958;6.258;2023-07-31T12:16:00;3.45;;;1.58;;
46897;SDS011;32646;50.958;6.258;2023-07-31T12:18:28;3.90;;;1.40;;
46897;SDS011;32646;50.958;6.258;2023-07-31T12:20:57;4.20;;;1.55;;
46897;SDS011;32646;50.958;6.258;2023-07-31T12:23:25;5.53;;;1.48;;
46897;SDS011;32646;50.958;6.258;2023-07-31T12:26:12;3.83;;;1.40;;
46897;SDS011;32646;50.958;6.258;2023-07-31T12:31:14;4.05;;;1.60;;
46897;SDS011;32646;50.958;6.258;2023-07-31T12:33:42;3.60;;;1.40;;
46897;SDS011;32646;50.958;6.258;2023-07-31T12:36:13;7.03;;;1.75;;
46897;SDS011;32646;50.958;6.258;2023-07-31T12:38:42;4.53;;;1.40;;
46897;SDS011;32646;50.958;6.258;2023-07-31T12:41:08;4.35;;;1.65;;
46897;SDS011;32646;50.958;6.258;2023-07-31T12:43:36;3.92;;;1.40;;
46897;SDS011;32646;50.958;6.258;2023-07-31T12:46:03;4.60;;;1.70;;
46897;SDS011;32646;50.958;6.258;2023-07-31T12:48:31;4.88;;;1.90;;
46897;SDS011;32646;50.958;6.258;2023-07-31T12:50:58;6.13;;;2.20;;
46897;SDS011;32646;50.958;6.258;2023-07-31T12:53:24;4.32;;;1.85;;
46897;SDS011;32646;50.958;6.258;2023-07-31T12:55:51;4.68;;;1.65;;
46897;SDS011;32646;50.958;6.258;2023-07-31T12:58:18;4.30;;;1.80;;
46897;SDS011;32646;50.958;6.258;2023-07-31T13:00:44;3.92;;;1.60;;
46897;SDS011;32646;50.958;6.258;2023-07-31T13:03:11;4.28;;;1.20;;
46897;SDS011;32646;50.958;6.258;2023-07-31T13:05:38;4.80;;;1.33;;
46897;SDS011;32646;50.958;6.258;2023-07-31T13:08:04;4.20;;;1.30;;
46897;SDS011;32646;50.958;6.258;2023-07-31T13:10:31;4.38;;;1.70;;
46897;SDS011;32646;50.958;6.258;2023-07-31T13:12:58;5.10;;;1.70;;
46897;SDS011;32646;50.958;6.258;2023-07-31T13:15:24;4.18;;;1.50;;
46897;SDS011;32646;50.958;6.258;2023-07-31T13:17:51;4.38;;;1.73;;
46897;SDS011;32646;50.958;6.258;2023-07-31T13:20:18;6.13;;;1.90;;
46897;SDS011;32646;50.958;6.258;2023-07-31T13:22:44;5.10;;;1.42;;
46897;SDS011;32646;50.958;6.258;2023-07-31T13:25:12;4.63;;;1.42;;
46897;SDS011;32646;50.958;6.258;2023-07-31T13:27:39;4.25;;;1.17;;
46897;SDS011;32646;50.958;6.258;2023-07-31T13:30:06;3.67;;;1.50;;
46897;SDS011;32646;50.958;6.258;2023-07-31T13:32:33;4.03;;;1.45;;
46897;SDS011;32646;50.958;6.258;2023-07-31T13:34:59;4.72;;;1.88;;
46897;SDS011;32646;50.958;6.258;2023-07-31T13:37:26;3.70;;;1.60;;
46897;SDS011;32646;50.958;6.258;2023-07-31T13:39:53;5.38;;;1.48;;
46897;SDS011;32646;50.958;6.258;2023-07-31T13:42:19;3.58;;;1.40;;
46897;SDS011;32646;50.958;6.258;2023-07-31T13:44:46;4.65;;;1.45;;
46897;SDS011;32646;50.958;6.258;2023-07-31T13:47:12;4.10;;;1.30;;
46897;SDS011;32646;50.958;6.258;2023-07-31T13:49:40;4.25;;;1.67;;
46897;SDS011;32646;50.958;6.258;2023-07-31T13:52:07;7.25;;;2.45;;
46897;SDS011;32646;50.958;6.258;2023-07-31T13:54:33;4.28;;;1.52;;
46897;SDS011;32646;50.958;6.258;2023-07-31T13:57:00;3.85;;;1.58;;
46897;SDS011;32646;50.958;6.258;2023-07-31T13:59:26;3.10;;;1.25;;
46897;SDS011;32646;50.958;6.258;2023-07-31T14:01:53;5.15;;;1.70;;
46897;SDS011;32646;50.958;6.258;2023-07-31T14:04:20;4.82;;;1.55;;
46897;SDS011;32646;50.958;6.258;2023-07-31T14:06:46;7.80;;;2.33;;
46897;SDS011;32646;50.958;6.258;2023-07-31T14:09:15;5.72;;;2.13;;
46897;SDS011;32646;50.958;6.258;2023-07-31T14:11:42;5.82;;;2.38;;
46897;SDS011;32646;50.958;6.258;2023-07-31T14:14:09;4.28;;;1.77;;
46897;SDS011;32646;50.958;6.258;2023-07-31T14:16:36;4.60;;;1.83;;
46897;SDS011;32646;50.958;6.258;2023-07-31T14:19:03;5.20;;;1.83;;
46897;SDS011;32646;50.958;6.258;2023-07-31T14:21:30;4.32;;;1.70;;
46897;SDS011;32646;50.958;6.258;2023-07-31T14:23:56;5.38;;;2.35;;
46897;SDS011;32646;50.958;6.258;2023-07-31T14:26:23;4.72;;;2.00;;
46897;SDS011;32646;50.958;6.258;2023-07-31T14:28:50;4.68;;;1.92;;
46897;SDS011;32646;50.958;6.258;2023-07-31T14:31:16;5.30;;;2.20;;
46897;SDS011;32646;50.958;6.258;2023-07-31T14:33:43;5.75;;;2.45;;
46897;SDS011;32646;50.958;6.258;2023-07-31T14:36:09;5.70;;;1.80;;
46897;SDS011;32646;50.958;6.258;2023-07-31T14:38:36;5.40;;;1.67;;
46897;SDS011;32646;50.958;6.258;2023-07-31T14:41:02;5.55;;;2.05;;
46897;SDS011;32646;50.958;6.258;2023-07-31T14:43:29;6.15;;;2.20;;
46897;SDS011;32646;50.958;6.258;2023-07-31T14:45:56;3.72;;;1.52;;
46897;SDS011;32646;50.958;6.258;2023-07-31T14:48:23;4.45;;;1.73;;
46897;SDS011;32646;50.958;6.258;2023-07-31T14:50:49;5.72;;;2.03;;
46897;SDS011;32646;50.958;6.258;2023-07-31T14:53:16;3.92;;;1.45;;
46897;SDS011;32646;50.958;6.258;2023-07-31T14:55:42;6.57;;;2.20;;
46897;SDS011;32646;50.958;6.258;2023-07-31T14:58:09;4.20;;;2.05;;
46897;SDS011;32646;50.958;6.258;2023-07-31T15:00:36;5.03;;;1.65;;
46897;SDS011;32646;50.958;6.258;2023-07-31T15:03:03;4.38;;;1.83;;
46897;SDS011;32646;50.958;6.258;2023-07-31T15:05:30;6.20;;;2.20;;
46897;SDS011;32646;50.958;6.258;2023-07-31T15:07:56;6.60;;;2.08;;